Time,TemperatureF,DewpointF,PressureIn,WindDirection,WindDirectionDegrees,WindSpeedMPH,WindSpeedGustMPH,Humidity,HourlyPrecipIn,Conditions,Clouds,dailyrainin,SoftwareType,DateUTC
2013-04-16 00:14:00,-999.0,-99.9,29.79,North,-999,-999.0,-999.0,-999,0.00,,,0.00,weatherlink.com 1.10,2013-04-16 05:14:00,
2013-04-16 00:29:00,-999.0,-99.9,29.79,North,-999,-999.0,-999.0,-999,0.00,,,0.00,weatherlink.com 1.10,2013-04-16 05:29:00,
2013-04-16 00:44:00,-999.0,-99.9,29.78,North,-999,-999.0,-999.0,-999,0.00,,,0.00,weatherlink.com 1.10,2013-04-16 05:44:00,
2013-04-16 00:59:00,-999.0,-99.9,29.79,North,-999,-999.0,-999.0,-999,0.00,,,0.00,weatherlink.com 1.10,2013-04-16 05:59:00,
2013-04-16 01:14:00,-999.0,-99.9,29.78,North,-999,-999.0,-999.0,-999,0.00,,,0.00,weatherlink.com 1.10,2013-04-16 06:14:00,
2013-04-16 01:29:00,-999.0,-99.9,29.78,North,-999,-999.0,-999.0,-999,0.00,,,0.00,weatherlink.com 1.10,2013-04-16 06:29:00,
2013-04-16 01:44:00,-999.0,-99.9,29.78,North,-999,-999.0,-999.0,-999,0.00,,,0.00,weatherlink.com 1.10,2013-04-16 06:44:00,
2013-04-16 02:00:00,-999.0,-99.9,29.77,North,-999,-999.0,-999.0,-999,0.00,,,0.00,weatherlink.com 1.10,2013-04-16 07:00:00,
2013-04-16 02:15:00,-999.0,-99.9,29.77,North,-999,-999.0,-999.0,-999,0.00,,,0.00,weatherlink.com 1.10,2013-04-16 07:15:00,
2013-04-16 02:30:00,-999.0,-99.9,29.76,North,-999,-999.0,-999.0,-999,0.00,,,0.00,weatherlink.com 1.10,2013-04-16 07:30:00,
2013-04-16 02:45:00,-999.0,-99.9,29.76,North,-999,-999.0,-999.0,-999,0.00,,,0.00,weatherlink.com 1.10,2013-04-16 07:45:00,
2013-04-16 03:00:00,-999.0,-99.9,29.76,North,-999,-999.0,-999.0,-999,0.00,,,0.00,weatherlink.com 1.10,2013-04-16 08:00:00,
2013-04-16 03:15:00,-999.0,-99.9,29.75,North,-999,-999.0,-999.0,-999,0.00,,,0.00,weatherlink.com 1.10,2013-04-16 08:15:00,
2013-04-16 03:30:00,-999.0,-99.9,29.75,North,-999,-999.0,-999.0,-999,0.00,,,0.00,weatherlink.com 1.10,2013-04-16 08:30:00,
2013-04-16 03:45:00,-999.0,-99.9,29.76,North,-999,-999.0,-999.0,-999,0.00,,,0.00,weatherlink.com 1.10,2013-04-16 08:45:00,
2013-04-16 04:00:00,-999.0,-99.9,29.75,North,-999,-999.0,-999.0,-999,0.00,,,0.00,weatherlink.com 1.10,2013-04-16 09:00:00,
2013-04-16 04:15:00,-999.0,-99.9,29.75,North,-999,-999.0,-999.0,-999,0.00,,,0.00,weatherlink.com 1.10,2013-04-16 09:15:00,
2013-04-16 04:30:00,-999.0,-99.9,29.74,North,-999,-999.0,-999.0,-999,0.00,,,0.00,weatherlink.com 1.10,2013-04-16 09:30:00,
2013-04-16 04:46:00,-999.0,-99.9,29.74,North,-999,-999.0,-999.0,-999,0.00,,,0.00,weatherlink.com 1.10,2013-04-16 09:46:00,
2013-04-16 05:01:00,-999.0,-99.9,29.75,North,-999,-999.0,-999.0,-999,0.00,,,0.00,weatherlink.com 1.10,2013-04-16 10:01:00,
2013-04-16 05:16:00,-999.0,-99.9,29.75,North,-999,-999.0,-999.0,-999,0.00,,,0.00,weatherlink.com 1.10,2013-04-16 10:16:00,
2013-04-16 05:31:00,-999.0,-99.9,29.75,North,-999,-999.0,-999.0,-999,0.00,,,0.00,weatherlink.com 1.10,2013-04-16 10:31:00,
2013-04-16 05:46:00,-999.0,-99.9,29.75,North,-999,-999.0,-999.0,-999,0.00,,,0.00,weatherlink.com 1.10,2013-04-16 10:46:00,
2013-04-16 06:31:00,-999.0,-99.9,29.77,North,-999,-999.0,-999.0,-999,0.00,,,0.00,weatherlink.com 1.10,2013-04-16 11:31:00,
2013-04-16 06:46:00,-999.0,-99.9,29.78,North,-999,-999.0,-999.0,-999,0.00,,,0.00,weatherlink.com 1.10,2013-04-16 11:46:00,
2013-04-16 07:01:00,-999.0,-99.9,29.78,North,-999,-999.0,-999.0,-999,0.00,,,0.00,weatherlink.com 1.10,2013-04-16 12:01:00,
2013-04-16 07:16:00,-999.0,-99.9,29.78,North,-999,-999.0,-999.0,-999,0.00,,,0.00,weatherlink.com 1.10,2013-04-16 12:16:00,
2013-04-16 07:31:00,-999.0,-99.9,29.79,North,-999,-999.0,-999.0,-999,0.00,,,0.00,weatherlink.com 1.10,2013-04-16 12:31:00,
2013-04-16 07:46:00,-999.0,-99.9,29.79,North,-999,-999.0,-999.0,-999,0.00,,,0.00,weatherlink.com 1.10,2013-04-16 12:46:00,
2013-04-16 08:01:00,-999.0,-99.9,29.80,North,-999,-999.0,-999.0,-999,0.00,,,0.00,weatherlink.com 1.10,2013-04-16 13:01:00,
2013-04-16 08:17:00,-999.0,-99.9,29.81,North,-999,-999.0,-999.0,-999,0.00,,,0.00,weatherlink.com 1.10,2013-04-16 13:17:00,
2013-04-16 08:32:00,-999.0,-99.9,29.81,North,-999,-999.0,-999.0,-999,0.00,,,0.00,weatherlink.com 1.10,2013-04-16 13:32:00,
2013-04-16 08:47:00,-999.0,-99.9,29.81,North,-999,-999.0,-999.0,-999,0.00,,,0.00,weatherlink.com 1.10,2013-04-16 13:47:00,
2013-04-16 09:02:00,73.0,70.0,29.81,ESE,118,10.0,15.0,91,0.00,,,0.00,weatherlink.com 1.10,2013-04-16 14:02:00,
2013-04-16 09:17:00,73.0,70.0,29.81,ESE,104,10.0,14.0,90,0.00,,,0.00,weatherlink.com 1.10,2013-04-16 14:17:00,
2013-04-16 09:32:00,73.0,70.0,29.82,ESE,121,9.0,16.0,90,0.00,,,0.00,weatherlink.com 1.10,2013-04-16 14:32:00,
2013-04-16 09:47:00,73.0,70.0,29.83,ESE,106,9.0,13.0,90,0.00,,,0.00,weatherlink.com 1.10,2013-04-16 14:47:00,
2013-04-16 10:02:00,73.5,70.0,29.83,East,84,9.0,15.0,89,0.00,,,0.00,weatherlink.com 1.10,2013-04-16 15:02:00,
2013-04-16 10:17:00,73.4,70.0,29.84,ESE,118,10.0,15.0,89,0.00,,,0.00,weatherlink.com 1.10,2013-04-16 15:17:00,
2013-04-16 10:32:00,73.3,70.0,29.84,East,97,10.0,14.0,89,0.00,,,0.00,weatherlink.com 1.10,2013-04-16 15:32:00,
2013-04-16 10:47:00,73.2,70.0,29.84,ESE,103,10.0,13.0,90,0.00,,,0.00,weatherlink.com 1.10,2013-04-16 15:47:00,
2013-04-16 11:02:00,73.3,70.0,29.84,East,101,12.0,15.0,89,0.00,,,0.00,weatherlink.com 1.10,2013-04-16 16:02:00,
2013-04-16 11:32:00,74.1,70.0,29.85,ESE,104,10.0,16.0,88,0.00,,,0.00,weatherlink.com 1.10,2013-04-16 16:32:00,
2013-04-16 11:47:00,74.2,71.0,29.85,East,84,9.0,18.0,88,0.00,,,0.00,weatherlink.com 1.10,2013-04-16 16:47:00,
2013-04-16 12:02:00,73.8,70.0,29.85,East,94,8.0,18.0,89,0.00,,,0.00,weatherlink.com 1.10,2013-04-16 17:02:00,
2013-04-16 12:17:00,73.5,70.0,29.85,ESE,105,8.0,16.0,89,0.00,,,0.00,weatherlink.com 1.10,2013-04-16 17:17:00,
2013-04-16 12:32:00,73.6,71.0,29.84,ESE,106,13.0,20.0,90,0.00,,,0.00,weatherlink.com 1.10,2013-04-16 17:32:00,
2013-04-16 12:47:00,73.8,70.0,29.84,ENE,73,11.0,20.0,89,0.00,,,0.00,weatherlink.com 1.10,2013-04-16 17:47:00,
2013-04-16 13:02:00,74.0,70.0,29.83,ESE,102,13.0,19.0,88,0.00,,,0.00,weatherlink.com 1.10,2013-04-16 18:02:00,
2013-04-16 13:17:00,74.9,71.0,29.83,East,91,12.0,18.0,86,0.00,,,0.00,weatherlink.com 1.10,2013-04-16 18:17:00,
2013-04-16 13:32:00,76.0,71.0,29.82,ESE,108,14.0,20.0,84,0.00,,,0.00,weatherlink.com 1.10,2013-04-16 18:32:00,
2013-04-16 13:47:00,75.6,71.0,29.82,ESE,110,12.0,22.0,85,0.00,,,0.00,weatherlink.com 1.10,2013-04-16 18:47:00,
2013-04-16 14:02:00,75.1,70.0,29.82,East,89,11.0,19.0,85,0.00,,,0.00,weatherlink.com 1.10,2013-04-16 19:02:00,
2013-04-16 14:17:00,74.6,71.0,29.82,ENE,75,10.0,19.0,87,0.00,,,0.00,weatherlink.com 1.10,2013-04-16 19:17:00,
2013-04-16 14:32:00,74.4,71.0,29.80,ESE,103,11.0,18.0,88,0.00,,,0.00,weatherlink.com 1.10,2013-04-16 19:32:00,
2013-04-16 14:47:00,73.9,71.0,29.80,ESE,108,19.0,19.0,89,0.00,,,0.00,weatherlink.com 1.10,2013-04-16 19:47:00,
2013-04-16 15:02:00,73.9,71.0,29.79,ESE,106,12.0,22.0,89,0.00,,,0.00,weatherlink.com 1.10,2013-04-16 20:02:00,
2013-04-16 15:17:00,74.0,71.0,29.78,East,93,14.0,21.0,90,0.00,,,0.00,weatherlink.com 1.10,2013-04-16 20:17:00,
2013-04-16 15:32:00,73.7,71.0,29.79,ESE,119,11.0,22.0,90,0.00,,,0.00,weatherlink.com 1.10,2013-04-16 20:32:00,
2013-04-16 15:47:00,73.4,71.0,29.79,East,90,15.0,20.0,91,0.00,,,0.00,weatherlink.com 1.10,2013-04-16 20:47:00,
2013-04-16 16:02:00,73.6,71.0,29.79,East,90,11.0,20.0,91,0.00,,,0.00,weatherlink.com 1.10,2013-04-16 21:02:00,
2013-04-16 16:17:00,73.5,71.0,29.79,East,88,9.0,18.0,91,0.00,,,0.00,weatherlink.com 1.10,2013-04-16 21:17:00,
2013-04-16 16:32:00,-999.0,-99.9,29.79,North,-999,-999.0,-999.0,-999,0.00,,,0.00,weatherlink.com 1.10,2013-04-16 21:32:00,
2013-04-16 16:47:00,-999.0,-99.9,29.78,North,-999,-999.0,-999.0,-999,0.00,,,0.00,weatherlink.com 1.10,2013-04-16 21:47:00,
2013-04-16 17:03:00,-999.0,-99.9,29.78,North,-999,-999.0,-999.0,-999,0.00,,,0.00,weatherlink.com 1.10,2013-04-16 22:03:00,
2013-04-16 17:18:00,-999.0,-99.9,29.78,North,-999,-999.0,-999.0,-999,0.00,,,0.00,weatherlink.com 1.10,2013-04-16 22:18:00,
2013-04-16 17:33:00,-999.0,-99.9,29.79,North,-999,-999.0,-999.0,-999,0.00,,,0.00,weatherlink.com 1.10,2013-04-16 22:33:00,
2013-04-16 17:48:00,-999.0,-99.9,29.79,North,-999,-999.0,-999.0,-999,0.00,,,0.00,weatherlink.com 1.10,2013-04-16 22:48:00,
2013-04-16 18:03:00,-999.0,-99.9,29.79,North,-999,-999.0,-999.0,-999,0.00,,,0.00,weatherlink.com 1.10,2013-04-16 23:03:00,
2013-04-16 18:18:00,-999.0,-99.9,29.79,North,-999,-999.0,-999.0,-999,0.00,,,0.00,weatherlink.com 1.10,2013-04-16 23:18:00,
2013-04-16 18:33:00,-999.0,-99.9,29.79,North,-999,-999.0,-999.0,-999,0.00,,,0.00,weatherlink.com 1.10,2013-04-16 23:33:00,
2013-04-16 18:48:00,-999.0,-99.9,29.78,North,-999,-999.0,-999.0,-999,0.00,,,0.00,weatherlink.com 1.10,2013-04-16 23:48:00,
2013-04-16 19:03:00,-999.0,-99.9,29.77,North,-999,-999.0,-999.0,-999,0.00,,,0.00,weatherlink.com 1.10,2013-04-17 00:03:00,
2013-04-16 19:18:00,-999.0,-99.9,29.78,North,-999,-999.0,-999.0,-999,0.00,,,0.00,weatherlink.com 1.10,2013-04-17 00:18:00,
2013-04-16 19:33:00,-999.0,-99.9,29.77,North,-999,-999.0,-999.0,-999,0.00,,,0.00,weatherlink.com 1.10,2013-04-17 00:33:00,
2013-04-16 19:48:00,-999.0,-99.9,29.76,North,-999,-999.0,-999.0,-999,0.00,,,0.00,weatherlink.com 1.10,2013-04-17 00:48:00,
2013-04-16 20:03:00,-999.0,-99.9,29.77,North,-999,-999.0,-999.0,-999,0.00,,,0.00,weatherlink.com 1.10,2013-04-17 01:03:00,
2013-04-16 20:18:00,-999.0,-99.9,29.77,North,-999,-999.0,-999.0,-999,0.00,,,0.00,weatherlink.com 1.10,2013-04-17 01:18:00,
2013-04-16 20:34:00,-999.0,-99.9,29.79,North,-999,-999.0,-999.0,-999,0.00,,,0.00,weatherlink.com 1.10,2013-04-17 01:34:00,
2013-04-16 20:49:00,-999.0,-99.9,29.79,North,-999,-999.0,-999.0,-999,0.00,,,0.00,weatherlink.com 1.10,2013-04-17 01:49:00,
2013-04-16 21:04:00,-999.0,-99.9,29.80,North,-999,-999.0,-999.0,-999,0.00,,,0.00,weatherlink.com 1.10,2013-04-17 02:04:00,
2013-04-16 21:19:00,-999.0,-99.9,29.79,North,-999,-999.0,-999.0,-999,0.00,,,0.00,weatherlink.com 1.10,2013-04-17 02:19:00,
2013-04-16 21:34:00,-999.0,-99.9,29.80,North,-999,-999.0,-999.0,-999,0.00,,,0.00,weatherlink.com 1.10,2013-04-17 02:34:00,
2013-04-16 21:49:00,-999.0,-99.9,29.82,North,-999,-999.0,-999.0,-999,0.00,,,0.00,weatherlink.com 1.10,2013-04-17 02:49:00,
2013-04-16 22:04:00,-999.0,-99.9,29.82,North,-999,-999.0,-999.0,-999,0.00,,,0.00,weatherlink.com 1.10,2013-04-17 03:04:00,
2013-04-16 22:19:00,-999.0,-99.9,29.83,North,-999,-999.0,-999.0,-999,0.00,,,0.00,weatherlink.com 1.10,2013-04-17 03:19:00,
2013-04-16 22:34:00,-999.0,-99.9,29.84,North,-999,-999.0,-999.0,-999,0.00,,,0.00,weatherlink.com 1.10,2013-04-17 03:34:00,
2013-04-16 22:49:00,-999.0,-99.9,29.85,North,-999,-999.0,-999.0,-999,0.00,,,0.00,weatherlink.com 1.10,2013-04-17 03:49:00,
2013-04-16 23:05:00,-999.0,-99.9,29.85,North,-999,-999.0,-999.0,-999,0.00,,,0.00,weatherlink.com 1.10,2013-04-17 04:05:00,
2013-04-16 23:19:00,-999.0,-99.9,29.84,North,-999,-999.0,-999.0,-999,0.00,,,0.00,weatherlink.com 1.10,2013-04-17 04:19:00,
2013-04-16 23:34:00,-999.0,-99.9,29.83,North,-999,-999.0,-999.0,-999,0.00,,,0.00,weatherlink.com 1.10,2013-04-17 04:34:00,
2013-04-16 23:50:00,-999.0,-99.9,29.83,North,-999,-999.0,-999.0,-999,0.00,,,0.00,weatherlink.com 1.10,2013-04-17 04:50:00,